Time;durP1;ratioP1;P1;durP2;ratioP2;P2;SDS_P1;SDS_P2;PMS_P1;PMS_P2;Temp;Humidity;BMP_temperature;BMP_pressure;BME280_temperature;BME280_humidity;BME280_pressure;Samples;Min_cycle;Max_cycle;Signal;HPM_P1;HPM_P2
2022/03/25 00:00:44;;;;;;;10.10;8.20;;;;;;;;;;5040281;28;20044;-77
2022/03/25 00:03:12;;;;;;;10.43;8.80;;;;;;;;;;5054829;28;20045;-76
2022/03/25 00:05:40;;;;;;;9.43;8.23;;;;;;;;;;5059995;28;20044;-76
2022/03/25 00:08:08;;;;;;;11.88;8.55;;;;;;;;;;5043250;28;20063;-76
2022/03/25 00:10:35;;;;;;;11.10;9.38;;;;;;;;;;5035130;28;20152;-75
2022/03/25 00:13:03;;;;;;;9.70;8.70;;;;;;;;;;5049876;28;20044;-77
2022/03/25 00:15:30;;;;;;;11.52;8.98;;;;;;;;;;5046657;28;20463;-77
2022/03/25 00:17:58;;;;;;;12.18;9.25;;;;;;;;;;5012147;28;20138;-77
2022/03/25 00:20:25;;;;;;;11.98;8.73;;;;;;;;;;5029717;28;20075;-77
2022/03/25 00:22:52;;;;;;;9.52;8.50;;;;;;;;;;5030650;28;20385;-77
2022/03/25 00:25:20;;;;;;;10.13;8.13;;;;;;;;;;5058562;28;20040;-77
2022/03/25 00:27:47;;;;;;;11.65;9.38;;;;;;;;;;5044912;28;20072;-77
2022/03/25 00:30:15;;;;;;;10.95;8.60;;;;;;;;;;5048767;28;20090;-77
2022/03/25 00:32:42;;;;;;;12.63;8.70;;;;;;;;;;5043837;28;20049;-76
2022/03/25 00:35:10;;;;;;;10.57;8.68;;;;;;;;;;5027446;28;20033;-76
2022/03/25 00:37:39;;;;;;;9.85;8.75;;;;;;;;;;5024312;28;20048;-76
2022/03/25 00:40:07;;;;;;;11.32;9.13;;;;;;;;;;5002410;28;20497;-76
2022/03/25 00:42:35;;;;;;;12.40;9.93;;;;;;;;;;5034026;28;20114;-76
2022/03/25 00:45:03;;;;;;;10.35;8.65;;;;;;;;;;5046289;28;20351;-76
2022/03/25 00:47:31;;;;;;;12.45;9.25;;;;;;;;;;5039335;28;20051;-77
2022/03/25 00:49:59;;;;;;;11.60;9.32;;;;;;;;;;5034307;28;20385;-77
2022/03/25 00:52:27;;;;;;;10.70;9.38;;;;;;;;;;5042233;28;20040;-76
2022/03/25 00:54:55;;;;;;;13.20;9.82;;;;;;;;;;5040997;28;20274;-76
2022/03/25 00:57:23;;;;;;;13.80;9.95;;;;;;;;;;5046876;28;20068;-77
2022/03/25 00:59:51;;;;;;;12.95;9.68;;;;;;;;;;5055995;28;20589;-77
2022/03/25 01:02:18;;;;;;;11.65;9.73;;;;;;;;;;5058562;28;20501;-76
2022/03/25 01:04:46;;;;;;;13.60;9.20;;;;;;;;;;5058179;28;20067;-76
2022/03/25 01:07:14;;;;;;;11.63;9.48;;;;;;;;;;5032646;28;20110;-77
2022/03/25 01:09:41;;;;;;;11.93;10.13;;;;;;;;;;5063673;28;20047;-77
2022/03/25 01:12:08;;;;;;;12.02;9.70;;;;;;;;;;5049282;28;20041;-77
2022/03/25 01:14:36;;;;;;;12.23;10.07;;;;;;;;;;5063240;28;20044;-77
2022/03/25 01:17:04;;;;;;;13.13;10.55;;;;;;;;;;5044192;28;20149;-76
2022/03/25 01:19:31;;;;;;;12.82;9.63;;;;;;;;;;5046688;28;20052;-77
2022/03/25 01:21:59;;;;;;;11.00;9.07;;;;;;;;;;5039899;28;20055;-77
2022/03/25 01:24:27;;;;;;;12.43;9.70;;;;;;;;;;5038375;28;20053;-77
2022/03/25 01:26:55;;;;;;;12.68;9.07;;;;;;;;;;5038965;28;20678;-77
2022/03/25 01:29:22;;;;;;;17.60;10.70;;;;;;;;;;5050996;28;20755;-76
2022/03/25 01:31:49;;;;;;;12.18;10.30;;;;;;;;;;5062339;28;20036;-76
2022/03/25 01:34:17;;;;;;;13.18;10.70;;;;;;;;;;5045513;28;20123;-77
2022/03/25 01:36:46;;;;;;;14.60;11.45;;;;;;;;;;5065233;28;20040;-77
2022/03/25 01:39:14;;;;;;;11.32;9.52;;;;;;;;;;5065424;28;20044;-77
2022/03/25 01:41:41;;;;;;;14.38;10.65;;;;;;;;;;5046950;28;20498;-77
2022/03/25 01:44:11;;;;;;;15.63;10.75;;;;;;;;;;5029647;28;20092;-77
2022/03/25 01:46:38;;;;;;;10.75;8.95;;;;;;;;;;5042958;28;20044;-77
2022/03/25 01:49:06;;;;;;;13.73;10.40;;;;;;;;;;5069026;28;20039;-77
2022/03/25 01:51:35;;;;;;;15.13;9.85;;;;;;;;;;5068731;28;20131;-77
2022/03/25 01:54:09;;;;;;;13.30;10.55;;;;;;;;;;5048212;28;20694;-76
2022/03/25 01:56:38;;;;;;;13.10;10.70;;;;;;;;;;5039000;28;20045;-77
2022/03/25 01:59:06;;;;;;;14.77;10.95;;;;;;;;;;5033334;28;20086;-77
2022/03/25 02:01:35;;;;;;;13.80;10.45;;;;;;;;;;5056618;28;20052;-77
2022/03/25 02:04:02;;;;;;;13.80;9.82;;;;;;;;;;5049656;28;20505;-77
2022/03/25 02:06:30;;;;;;;13.40;10.98;;;;;;;;;;5053829;28;20044;-77
2022/03/25 02:08:57;;;;;;;13.93;10.43;;;;;;;;;;5052633;28;20041;-77
2022/03/25 02:11:26;;;;;;;14.25;11.35;;;;;;;;;;5052646;28;20152;-77
2022/03/25 02:13:53;;;;;;;15.15;11.02;;;;;;;;;;5052373;28;20439;-77
2022/03/25 02:16:33;;;;;;;14.38;10.65;;;;;;;;;;5044483;28;20041;-76
2022/03/25 02:19:00;;;;;;;12.88;10.45;;;;;;;;;;5050816;28;20055;-76
2022/03/25 02:21:29;;;;;;;13.98;11.73;;;;;;;;;;5049392;28;20540;-76
2022/03/25 02:23:57;;;;;;;12.95;10.80;;;;;;;;;;5050845;28;20123;-76
2022/03/25 02:26:24;;;;;;;15.32;11.73;;;;;;;;;;5057650;28;20099;-76
2022/03/25 02:28:54;;;;;;;13.82;10.82;;;;;;;;;;5030741;28;20552;-77
2022/03/25 02:31:21;;;;;;;16.95;12.23;;;;;;;;;;5033784;28;20047;-77
2022/03/25 02:33:49;;;;;;;16.85;12.43;;;;;;;;;;5032577;28;20037;-77
2022/03/25 02:36:16;;;;;;;14.25;11.52;;;;;;;;;;5037409;28;20133;-76
2022/03/25 02:38:44;;;;;;;15.73;12.30;;;;;;;;;;5056408;28;20084;-77
2022/03/25 02:41:12;;;;;;;15.68;12.02;;;;;;;;;;5033403;28;20068;-77
2022/03/25 02:43:39;;;;;;;14.98;11.13;;;;;;;;;;5050830;28;20048;-76
2022/03/25 02:46:06;;;;;;;15.98;11.43;;;;;;;;;;5024513;28;20059;-76
2022/03/25 02:48:34;;;;;;;17.27;14.23;;;;;;;;;;5030327;28;20040;-76
2022/03/25 02:51:02;;;;;;;16.52;12.23;;;;;;;;;;5030395;28;20102;-76
2022/03/25 02:53:29;;;;;;;16.42;12.18;;;;;;;;;;5030592;28;20033;-77
2022/03/25 02:55:57;;;;;;;16.30;11.73;;;;;;;;;;5058035;28;20132;-76
2022/03/25 02:58:24;;;;;;;14.25;11.55;;;;;;;;;;5030098;28;20060;-76
2022/03/25 03:00:51;;;;;;;16.67;11.40;;;;;;;;;;5037293;28;20102;-76
2022/03/25 03:03:19;;;;;;;15.32;11.90;;;;;;;;;;5043016;28;20041;-76
2022/03/25 03:05:46;;;;;;;16.30;11.80;;;;;;;;;;5046545;28;20068;-76
2022/03/25 03:08:14;;;;;;;15.07;11.70;;;;;;;;;;5047489;28;20060;-76
2022/03/25 03:10:42;;;;;;;15.70;12.35;;;;;;;;;;5029507;28;20041;-76
2022/03/25 03:13:10;;;;;;;15.77;12.35;;;;;;;;;;5047325;28;20044;-76
2022/03/25 03:15:37;;;;;;;15.57;11.70;;;;;;;;;;5061295;28;20038;-76
2022/03/25 03:18:06;;;;;;;15.65;11.23;;;;;;;;;;5044019;28;20040;-77
2022/03/25 03:20:34;;;;;;;20.15;12.88;;;;;;;;;;5052425;28;20045;-76
2022/03/25 03:23:01;;;;;;;15.32;12.02;;;;;;;;;;5066302;28;20048;-77
2022/03/25 03:25:28;;;;;;;17.73;13.55;;;;;;;;;;5068405;28;20573;-76
2022/03/25 03:27:56;;;;;;;18.13;12.63;;;;;;;;;;5060837;28;20053;-77
2022/03/25 03:30:23;;;;;;;15.05;12.43;;;;;;;;;;5056783;28;20145;-76
2022/03/25 03:32:55;;;;;;;15.70;12.20;;;;;;;;;;5028840;28;20037;-76
2022/03/25 03:35:23;;;;;;;17.17;12.25;;;;;;;;;;5046394;28;20130;-76
2022/03/25 03:37:50;;;;;;;14.93;12.07;;;;;;;;;;5026950;28;20136;-76
2022/03/25 03:40:18;;;;;;;15.85;11.75;;;;;;;;;;5058833;28;20378;-76
2022/03/25 03:42:45;;;;;;;16.95;12.48;;;;;;;;;;5051706;28;20055;-76
2022/03/25 03:45:14;;;;;;;17.88;13.05;;;;;;;;;;5062907;28;20039;-76
2022/03/25 03:47:42;;;;;;;17.55;11.90;;;;;;;;;;5046450;28;20700;-76
2022/03/25 03:50:13;;;;;;;20.00;14.00;;;;;;;;;;5050193;28;20854;-76
2022/03/25 03:52:41;;;;;;;18.75;13.55;;;;;;;;;;5029108;28;20396;-76
2022/03/25 03:55:09;;;;;;;17.20;12.63;;;;;;;;;;5050984;28;20051;-76
2022/03/25 03:57:36;;;;;;;19.13;13.25;;;;;;;;;;5066848;28;20128;-76
2022/03/25 04:00:05;;;;;;;20.27;14.25;;;;;;;;;;5066965;28;20129;-76
2022/03/25 04:02:39;;;;;;;21.88;15.98;;;;;;;;;;5065501;28;20041;-76
2022/03/25 04:05:07;;;;;;;22.58;15.63;;;;;;;;;;5045200;28;20049;-76
2022/03/25 04:07:42;;;;;;;24.00;15.18;;;;;;;;;;5047707;28;20055;-80
2022/03/25 04:10:10;;;;;;;21.08;15.02;;;;;;;;;;5048784;28;20485;-75
2022/03/25 04:12:38;;;;;;;26.55;17.27;;;;;;;;;;5034630;28;20400;-76
2022/03/25 04:15:08;;;;;;;25.92;15.68;;;;;;;;;;5047976;28;20069;-78
2022/03/25 04:17:35;;;;;;;24.70;16.63;;;;;;;;;;5046743;28;20060;-79
2022/03/25 04:20:03;;;;;;;25.77;16.75;;;;;;;;;;5006299;28;20079;-78
2022/03/25 04:22:30;;;;;;;26.35;17.85;;;;;;;;;;5058967;22;20043;-76
2022/03/25 04:24:58;;;;;;;25.70;15.50;;;;;;;;;;5066219;28;20665;-76
2022/03/25 04:27:25;;;;;;;26.25;17.60;;;;;;;;;;5085659;28;20040;-75
2022/03/25 04:29:55;;;;;;;25.65;15.73;;;;;;;;;;5067876;28;20036;-74
2022/03/25 04:32:22;;;;;;;24.80;17.17;;;;;;;;;;5084040;28;20036;-76
2022/03/25 04:34:49;;;;;;;24.33;16.08;;;;;;;;;;5079774;28;20044;-74
2022/03/25 04:37:17;;;;;;;27.67;17.50;;;;;;;;;;5081704;28;20036;-74
2022/03/25 04:39:44;;;;;;;25.75;17.40;;;;;;;;;;5085409;28;20059;-73
2022/03/25 04:42:12;;;;;;;27.00;16.98;;;;;;;;;;5085853;28;20135;-76
2022/03/25 04:44:39;;;;;;;29.35;17.65;;;;;;;;;;5065159;28;20047;-73
2022/03/25 04:47:07;;;;;;;23.83;15.68;;;;;;;;;;5078267;28;20045;-73
2022/03/25 04:49:35;;;;;;;26.58;17.65;;;;;;;;;;5073383;28;20044;-73
2022/03/25 04:52:03;;;;;;;28.33;18.15;;;;;;;;;;5087864;28;20036;-75
2022/03/25 04:54:30;;;;;;;27.40;18.77;;;;;;;;;;5082602;28;20054;-76
2022/03/25 04:56:57;;;;;;;31.23;21.25;;;;;;;;;;5081455;28;20430;-76
2022/03/25 04:59:25;;;;;;;29.75;18.30;;;;;;;;;;5092469;28;20048;-73
2022/03/25 05:01:52;;;;;;;25.45;17.35;;;;;;;;;;5084875;28;20040;-75
2022/03/25 05:04:20;;;;;;;25.83;17.70;;;;;;;;;;5090038;28;20436;-75
2022/03/25 05:06:48;;;;;;;28.58;17.23;;;;;;;;;;5100639;28;20137;-73
2022/03/25 05:09:15;;;;;;;26.70;16.63;;;;;;;;;;5105788;28;20043;-76
2022/03/25 05:11:43;;;;;;;27.77;16.17;;;;;;;;;;5091071;28;20044;-75
2022/03/25 05:14:10;;;;;;;30.85;16.27;;;;;;;;;;5084866;28;20040;-73
2022/03/25 05:16:37;;;;;;;26.73;17.45;;;;;;;;;;5083993;28;20044;-75
2022/03/25 05:19:05;;;;;;;30.63;18.65;;;;;;;;;;5066554;28;20503;-74
2022/03/25 05:21:32;;;;;;;22.90;15.18;;;;;;;;;;5103822;28;20449;-75
2022/03/25 05:23:59;;;;;;;22.42;15.98;;;;;;;;;;5064628;28;20048;-76
2022/03/25 05:26:27;;;;;;;27.23;18.30;;;;;;;;;;5067809;28;20036;-74
2022/03/25 05:28:54;;;;;;;21.40;14.52;;;;;;;;;;5077976;28;20460;-76
2022/03/25 05:31:23;;;;;;;26.90;18.17;;;;;;;;;;5063407;28;20071;-75
2022/03/25 05:33:50;;;;;;;24.58;16.92;;;;;;;;;;5081534;28;20149;-75
2022/03/25 05:36:18;;;;;;;23.40;15.50;;;;;;;;;;5097225;28;20035;-74
2022/03/25 05:38:45;;;;;;;26.20;17.40;;;;;;;;;;5095279;28;20048;-73
2022/03/25 05:41:13;;;;;;;26.17;15.32;;;;;;;;;;5086775;28;20040;-73
2022/03/25 05:43:40;;;;;;;29.00;18.83;;;;;;;;;;5092352;28;20043;-73
2022/03/25 05:46:08;;;;;;;27.17;18.95;;;;;;;;;;5096511;28;20130;-73
2022/03/25 05:48:35;;;;;;;30.25;20.45;;;;;;;;;;5089911;28;20067;-72
2022/03/25 05:51:03;;;;;;;34.58;21.17;;;;;;;;;;5097334;28;20854;-76
2022/03/25 05:53:30;;;;;;;30.35;20.63;;;;;;;;;;5088917;28;20044;-75
2022/03/25 05:55:59;;;;;;;31.38;21.98;;;;;;;;;;5101463;28;20484;-74
2022/03/25 05:58:27;;;;;;;30.02;20.52;;;;;;;;;;5078158;28;20055;-74
2022/03/25 06:00:54;;;;;;;26.35;19.13;;;;;;;;;;5080223;28;20045;-73
2022/03/25 06:03:21;;;;;;;25.23;17.48;;;;;;;;;;5074460;28;20124;-75
2022/03/25 06:05:49;;;;;;;19.90;15.38;;;;;;;;;;5080286;28;20052;-74
2022/03/25 06:08:16;;;;;;;22.33;16.35;;;;;;;;;;5084499;28;20404;-74
2022/03/25 06:10:44;;;;;;;29.20;19.02;;;;;;;;;;5071663;28;20048;-73
2022/03/25 06:13:11;;;;;;;22.52;17.00;;;;;;;;;;5045919;28;20044;-73
2022/03/25 06:15:44;;;;;;;21.75;16.00;;;;;;;;;;5080016;28;20052;-74
2022/03/25 06:18:11;;;;;;;23.48;16.98;;;;;;;;;;5079933;28;20066;-73
2022/03/25 06:20:39;;;;;;;23.63;16.73;;;;;;;;;;5074268;28;20040;-76
2022/03/25 06:23:06;;;;;;;23.35;18.65;;;;;;;;;;5076553;28;20055;-73
2022/03/25 06:25:34;;;;;;;24.30;17.40;;;;;;;;;;5085653;28;20068;-73
2022/03/25 06:28:04;;;;;;;23.75;17.45;;;;;;;;;;5100315;28;20130;-74
2022/03/25 06:30:34;;;;;;;19.40;16.15;;;;;;;;;;5105797;28;20040;-73
2022/03/25 06:33:04;;;;;;;23.88;16.27;;;;;;;;;;5088420;28;20044;-73
2022/03/25 06:35:32;;;;;;;22.73;16.95;;;;;;;;;;5093665;28;20104;-74
2022/03/25 06:38:04;;;;;;;24.33;16.23;;;;;;;;;;5068280;28;20032;-73
2022/03/25 06:40:32;;;;;;;21.45;17.15;;;;;;;;;;5074953;28;20133;-73
2022/03/25 06:42:59;;;;;;;19.33;14.52;;;;;;;;;;5087803;28;20040;-73
2022/03/25 06:45:28;;;;;;;17.30;14.63;;;;;;;;;;5087921;28;20036;-73
2022/03/25 06:47:55;;;;;;;21.58;16.23;;;;;;;;;;5085244;28;20059;-73
2022/03/25 06:50:24;;;;;;;21.00;15.35;;;;;;;;;;5085675;28;20074;-74
2022/03/25 06:52:52;;;;;;;22.23;16.42;;;;;;;;;;5069552;28;20135;-75
2022/03/25 06:55:19;;;;;;;21.00;16.17;;;;;;;;;;5091813;28;20499;-72
2022/03/25 06:57:48;;;;;;;18.92;15.65;;;;;;;;;;5086355;28;20436;-72
2022/03/25 07:00:17;;;;;;;19.60;14.35;;;;;;;;;;5088105;28;20427;-74
2022/03/25 07:02:45;;;;;;;22.73;15.63;;;;;;;;;;5086806;28;20278;-76
2022/03/25 07:05:13;;;;;;;18.58;15.35;;;;;;;;;;5084404;28;20094;-74
2022/03/25 07:07:42;;;;;;;21.20;15.15;;;;;;;;;;5086458;28;20045;-76
2022/03/25 07:10:10;;;;;;;21.48;15.80;;;;;;;;;;5087362;28;20039;-75
2022/03/25 07:12:39;;;;;;;19.65;15.50;;;;;;;;;;5084947;28;20048;-75
2022/03/25 07:15:07;;;;;;;22.23;16.10;;;;;;;;;;5084362;28;20042;-76
2022/03/25 07:17:37;;;;;;;23.90;16.70;;;;;;;;;;5091842;28;20077;-74
2022/03/25 07:20:06;;;;;;;24.13;16.30;;;;;;;;;;5088345;28;20056;-73
2022/03/25 07:22:34;;;;;;;21.13;15.57;;;;;;;;;;5095189;28;20040;-73
2022/03/25 07:25:01;;;;;;;19.33;15.63;;;;;;;;;;5071888;28;20397;-73
2022/03/25 07:27:29;;;;;;;22.73;15.50;;;;;;;;;;5093911;28;20050;-75
2022/03/25 07:29:56;;;;;;;23.75;16.20;;;;;;;;;;5091245;28;20047;-74
2022/03/25 07:32:24;;;;;;;21.25;14.85;;;;;;;;;;5090164;28;20501;-74
2022/03/25 07:34:51;;;;;;;22.55;16.13;;;;;;;;;;5074452;28;20128;-74
2022/03/25 07:37:18;;;;;;;20.80;15.90;;;;;;;;;;5089623;28;20047;-74
2022/03/25 07:39:46;;;;;;;20.45;15.30;;;;;;;;;;5086035;28;20799;-73
2022/03/25 07:42:19;;;;;;;18.15;15.63;;;;;;;;;;5089436;28;20040;-75
2022/03/25 07:44:47;;;;;;;17.92;15.68;;;;;;;;;;5064541;28;20040;-74
2022/03/25 07:47:15;;;;;;;24.02;16.92;;;;;;;;;;5088249;28;20080;-74
2022/03/25 07:49:43;;;;;;;20.10;16.17;;;;;;;;;;5079078;28;20043;-75
2022/03/25 07:52:11;;;;;;;21.70;16.42;;;;;;;;;;5081558;28;20831;-75
2022/03/25 07:54:38;;;;;;;20.33;16.58;;;;;;;;;;5079969;28;20042;-76
2022/03/25 07:57:06;;;;;;;20.63;17.10;;;;;;;;;;5081794;28;20101;-73
2022/03/25 07:59:33;;;;;;;19.35;16.40;;;;;;;;;;5083413;28;20051;-73
2022/03/25 08:02:00;;;;;;;17.30;14.73;;;;;;;;;;5086214;28;20048;-76
2022/03/25 08:04:28;;;;;;;23.20;16.38;;;;;;;;;;5080193;28;20066;-77
2022/03/25 08:06:56;;;;;;;21.05;16.63;;;;;;;;;;5078026;28;20052;-76
2022/03/25 08:09:23;;;;;;;18.60;15.55;;;;;;;;;;5087376;28;20154;-77
2022/03/25 08:11:51;;;;;;;20.52;16.80;;;;;;;;;;5086298;28;20040;-76
2022/03/25 08:14:22;;;;;;;;;;;;;;;;;;5062647;28;20102;-74
2022/03/25 08:16:50;;;;;;;24.95;17.25;;;;;;;;;;5068269;28;19923;-74
2022/03/25 08:19:18;;;;;;;19.63;16.33;;;;;;;;;;5087062;28;20519;-76
2022/03/25 08:21:45;;;;;;;20.13;16.55;;;;;;;;;;5088735;28;20040;-74
2022/03/25 08:29:46;;;;;;;20.17;16.45;;;;;;;;;;5075547;28;20048;-74
2022/03/25 08:32:13;;;;;;;20.40;17.35;;;;;;;;;;5071275;28;20407;-74
2022/03/25 08:34:41;;;;;;;20.17;15.88;;;;;;;;;;5065591;28;20041;-74
2022/03/25 08:37:08;;;;;;;21.90;16.63;;;;;;;;;;5067664;28;20042;-74
2022/03/25 08:39:35;;;;;;;24.77;18.63;;;;;;;;;;5065834;28;20037;-74
2022/03/25 08:42:03;;;;;;;21.73;17.27;;;;;;;;;;5069046;28;20068;-75
2022/03/25 08:44:30;;;;;;;21.63;18.33;;;;;;;;;;5083407;28;20137;-74
2022/03/25 08:46:58;;;;;;;21.40;18.38;;;;;;;;;;5074655;28;20142;-74
2022/03/25 08:49:25;;;;;;;22.13;18.00;;;;;;;;;;5076409;28;20511;-76
2022/03/25 08:51:53;;;;;;;23.55;18.35;;;;;;;;;;5066453;28;20102;-74
2022/03/25 08:54:21;;;;;;;24.58;17.67;;;;;;;;;;5069108;28;20032;-76
2022/03/25 08:56:49;;;;;;;19.83;16.33;;;;;;;;;;5070707;28;20041;-74
2022/03/25 08:59:17;;;;;;;21.67;18.17;;;;;;;;;;5052250;28;20045;-74
2022/03/25 09:01:45;;;;;;;22.30;18.08;;;;;;;;;;5070706;28;20124;-75
2022/03/25 09:04:12;;;;;;;23.17;18.15;;;;;;;;;;5057052;28;20044;-76
2022/03/25 09:06:40;;;;;;;21.80;18.10;;;;;;;;;;5081783;28;20126;-75
2022/03/25 09:09:07;;;;;;;20.17;17.90;;;;;;;;;;5089686;28;20036;-74
2022/03/25 09:11:35;;;;;;;24.00;18.02;;;;;;;;;;5085376;28;20128;-74
2022/03/25 09:14:02;;;;;;;21.60;17.27;;;;;;;;;;5079615;28;20035;-77
2022/03/25 09:16:30;;;;;;;20.65;16.95;;;;;;;;;;5071197;28;20392;-72
2022/03/25 09:18:57;;;;;;;23.48;18.35;;;;;;;;;;5051056;28;20454;-74
2022/03/25 09:21:25;;;;;;;22.23;17.60;;;;;;;;;;5080363;28;20509;-74
2022/03/25 09:23:52;;;;;;;20.63;18.42;;;;;;;;;;5084071;28;20047;-75
2022/03/25 09:26:19;;;;;;;26.02;18.33;;;;;;;;;;5071008;28;20047;-74
2022/03/25 09:28:47;;;;;;;22.02;18.20;;;;;;;;;;5078368;28;20088;-74
2022/03/25 09:31:14;;;;;;;21.48;18.10;;;;;;;;;;5109612;28;20043;-76
2022/03/25 09:36:48;;;;;;;20.73;17.85;;;;;;;;;;5078568;28;20468;-75
2022/03/25 09:39:15;;;;;;;20.65;17.85;;;;;;;;;;5089575;28;20043;-74
2022/03/25 09:41:43;;;;;;;21.92;18.40;;;;;;;;;;5102455;28;20626;-74
2022/03/25 09:44:10;;;;;;;27.80;18.40;;;;;;;;;;5088130;28;20040;-74
2022/03/25 09:46:41;;;;;;;21.33;18.45;;;;;;;;;;5090047;28;20163;-74
2022/03/25 09:49:12;;;;;;;24.25;17.67;;;;;;;;;;5088093;28;20114;-75
2022/03/25 09:51:43;;;;;;;20.08;17.02;;;;;;;;;;5102268;28;20071;-74
2022/03/25 09:54:13;;;;;;;21.48;18.48;;;;;;;;;;5103656;28;20078;-74
2022/03/25 09:56:41;;;;;;;22.23;17.90;;;;;;;;;;5081672;28;20040;-76
2022/03/25 09:59:09;;;;;;;21.90;18.00;;;;;;;;;;5089543;28;20457;-75
2022/03/25 10:01:37;;;;;;;21.27;18.67;;;;;;;;;;5089875;28;20047;-75
2022/03/25 10:04:07;;;;;;;24.35;18.80;;;;;;;;;;5081958;28;20434;-75
2022/03/25 10:06:48;;;;;;;25.13;19.35;;;;;;;;;;5079221;28;20040;-75
2022/03/25 10:09:16;;;;;;;;;;;;;;;;;;5078555;28;20177;-74
2022/03/25 10:11:45;;;;;;;29.38;19.55;;;;;;;;;;5089631;28;19923;-74
2022/03/25 10:14:15;;;;;;;24.60;19.02;;;;;;;;;;5088865;28;20420;-74
2022/03/25 10:16:45;;;;;;;25.07;19.23;;;;;;;;;;5102559;28;20039;-74
2022/03/25 10:19:16;;;;;;;24.80;18.80;;;;;;;;;;5096880;28;20119;-74
2022/03/25 10:21:57;;;;;;;22.83;18.83;;;;;;;;;;5104308;22;20321;-78
2022/03/25 10:24:38;;;;;;;23.92;19.90;;;;;;;;;;5077210;28;20051;-78
2022/03/25 10:27:29;;;;;;;24.25;19.63;;;;;;;;;;5060760;28;20040;-79
2022/03/25 10:29:57;;;;;;;;;;;;;;;;;;5079168;28;20041;-78
2022/03/25 10:32:26;;;;;;;27.35;19.25;;;;;;;;;;5049366;28;19935;-78
2022/03/25 10:35:01;;;;;;;25.20;18.88;;;;;;;;;;5065275;28;20098;-79
2022/03/25 10:37:28;;;;;;;24.30;18.27;;;;;;;;;;5065889;28;20100;-78
2022/03/25 10:39:56;;;;;;;27.00;19.90;;;;;;;;;;5047629;28;20056;-79
2022/03/25 10:42:24;;;;;;;25.58;19.17;;;;;;;;;;5064795;28;20043;-78
2022/03/25 10:44:57;;;;;;;21.92;18.55;;;;;;;;;;5032750;28;20118;-77
2022/03/25 10:47:26;;;;;;;23.55;18.88;;;;;;;;;;5043112;28;20123;-78
2022/03/25 10:49:54;;;;;;;21.13;17.83;;;;;;;;;;5065971;28;20048;-78
2022/03/25 10:52:25;;;;;;;25.83;18.83;;;;;;;;;;5068857;28;20090;-79
2022/03/25 10:55:19;;;;;;;27.88;19.08;;;;;;;;;;5034168;28;20043;-79
2022/03/25 10:57:52;;;;;;;24.67;19.17;;;;;;;;;;5048347;28;20041;-78
2022/03/25 11:00:20;;;;;;;31.63;19.38;;;;;;;;;;5060274;28;20063;-78
2022/03/25 11:02:48;;;;;;;26.17;19.02;;;;;;;;;;5060728;28;20052;-79
2022/03/25 11:05:16;;;;;;;26.77;19.25;;;;;;;;;;5043933;28;20045;-77
2022/03/25 11:07:44;;;;;;;25.35;19.83;;;;;;;;;;5048887;28;20044;-79
2022/03/25 11:10:17;;;;;;;30.95;19.95;;;;;;;;;;5046852;28;20400;-76
2022/03/25 11:12:45;;;;;;;22.77;18.40;;;;;;;;;;5068447;28;20144;-79
2022/03/25 11:15:14;;;;;;;22.75;19.33;;;;;;;;;;5049416;28;20060;-77
2022/03/25 11:17:42;;;;;;;24.05;19.35;;;;;;;;;;5049637;28;20305;-78
2022/03/25 11:20:11;;;;;;;22.67;19.08;;;;;;;;;;5063981;28;20028;-79
2022/03/25 11:22:58;;;;;;;26.20;19.48;;;;;;;;;;5064057;28;20033;-78
2022/03/25 11:25:28;;;;;;;25.83;19.17;;;;;;;;;;5063805;28;20032;-78
2022/03/25 11:27:59;;;;;;;26.15;19.75;;;;;;;;;;5066957;28;20291;-78
2022/03/25 11:30:27;;;;;;;;;;;;;;;;;;5066879;28;20044;-78
2022/03/25 11:32:58;;;;;;;27.15;19.25;;;;;;;;;;5066154;28;20485;-78
2022/03/25 11:35:25;;;;;;;25.35;19.58;;;;;;;;;;5049255;28;20075;-79
2022/03/25 11:38:14;;;;;;;28.95;19.10;;;;;;;;;;5052146;28;20040;-78
2022/03/25 11:40:42;;;;;;;28.65;19.48;;;;;;;;;;5081557;28;20641;-78
2022/03/25 11:43:16;;;;;;;25.80;19.55;;;;;;;;;;5063203;28;20041;-79
2022/03/25 11:45:45;;;;;;;22.48;19.25;;;;;;;;;;5049442;28;20052;-78
2022/03/25 11:48:12;;;;;;;25.88;19.30;;;;;;;;;;5065114;28;20330;-78
2022/03/25 11:50:43;;;;;;;27.33;19.55;;;;;;;;;;5064529;28;20045;-79
2022/03/25 11:53:11;;;;;;;26.50;19.35;;;;;;;;;;5047167;28;20357;-78
2022/03/25 11:55:53;;;;;;;22.52;17.45;;;;;;;;;;5063882;28;20139;-77
2022/03/25 11:58:22;;;;;;;34.63;18.17;;;;;;;;;;5065617;28;20044;-78
2022/03/25 12:01:09;;;;;;;22.83;18.23;;;;;;;;;;5037190;28;20052;-78
2022/03/25 12:03:50;;;;;;;22.63;18.20;;;;;;;;;;5015751;28;20114;-79
2022/03/25 12:06:18;;;;;;;23.73;18.47;;;;;;;;;;5028785;28;20762;-78
2022/03/25 12:09:01;;;;;;;26.60;18.80;;;;;;;;;;5065850;28;20290;-78
2022/03/25 12:11:48;;;;;;;21.27;17.48;;;;;;;;;;5028820;28;20032;-79
2022/03/25 12:14:16;;;;;;;20.70;16.73;;;;;;;;;;5045237;28;20488;-78
2022/03/25 12:16:47;;;;;;;20.45;17.63;;;;;;;;;;5067383;28;20131;-78
2022/03/25 12:19:28;;;;;;;21.02;17.67;;;;;;;;;;5044799;28;20055;-78
2022/03/25 12:22:21;;;;;;;22.30;18.17;;;;;;;;;;5030543;28;20555;-78
2022/03/25 12:24:50;;;;;;;24.75;17.02;;;;;;;;;;5046182;28;20196;-77
2022/03/25 12:27:18;;;;;;;21.58;17.17;;;;;;;;;;5049232;28;20075;-78
2022/03/25 12:29:51;;;;;;;26.08;17.25;;;;;;;;;;5058282;28;20189;-78
2022/03/25 12:32:23;;;;;;;22.08;16.27;;;;;;;;;;5061851;28;20045;-77
2022/03/25 12:34:50;;;;;;;20.25;16.38;;;;;;;;;;5061686;28;20045;-78
2022/03/25 12:37:39;;;;;;;19.95;16.58;;;;;;;;;;5076966;28;20036;-77
2022/03/25 12:40:24;;;;;;;24.63;16.42;;;;;;;;;;5072964;28;20104;-78
2022/03/25 12:42:59;;;;;;;23.63;16.88;;;;;;;;;;5061846;28;20132;-78
2022/03/25 12:45:34;;;;;;;21.13;16.90;;;;;;;;;;5052876;28;20148;-78
2022/03/25 12:48:11;;;;;;;22.25;16.40;;;;;;;;;;5060620;28;20040;-78
2022/03/25 12:50:42;;;;;;;21.67;17.10;;;;;;;;;;5058171;28;20037;-78
2022/03/25 12:53:10;;;;;;;21.17;16.10;;;;;;;;;;5062673;28;20049;-78
2022/03/25 12:55:40;;;;;;;22.85;15.90;;;;;;;;;;5066246;28;20083;-78
2022/03/25 12:58:15;;;;;;;17.55;15.00;;;;;;;;;;5038763;28;20044;-78
2022/03/25 13:00:44;;;;;;;21.00;16.30;;;;;;;;;;5059315;28;20108;-78
2022/03/25 13:03:13;;;;;;;17.15;14.65;;;;;;;;;;5062644;28;20062;-79
2022/03/25 13:05:41;;;;;;;17.70;15.40;;;;;;;;;;5054707;28;20044;-79
2022/03/25 13:08:09;;;;;;;20.00;14.75;;;;;;;;;;5059074;28;20512;-79
2022/03/25 13:10:40;;;;;;;42.72;38.78;;;;;;;;;;5055726;28;20044;-79
2022/03/25 13:13:08;;;;;;;20.65;16.77;;;;;;;;;;5050289;28;20451;-80
2022/03/25 13:15:37;;;;;;;18.80;16.00;;;;;;;;;;5060897;28;20135;-78
2022/03/25 13:18:09;;;;;;;19.00;15.13;;;;;;;;;;5027900;28;20045;-78
2022/03/25 13:20:39;;;;;;;18.92;14.82;;;;;;;;;;5060498;28;20047;-79
2022/03/25 13:23:16;;;;;;;18.48;16.05;;;;;;;;;;5009554;28;20049;-79
2022/03/25 13:25:45;;;;;;;20.85;16.17;;;;;;;;;;5060475;28;20064;-77
2022/03/25 13:28:25;;;;;;;19.77;15.02;;;;;;;;;;5044257;28;20044;-77
2022/03/25 13:30:59;;;;;;;17.20;14.48;;;;;;;;;;5064239;28;20098;-78
2022/03/25 13:33:28;;;;;;;19.08;14.93;;;;;;;;;;5061202;28;20071;-79
2022/03/25 13:36:04;;;;;;;18.70;15.27;;;;;;;;;;5041690;28;20041;-78
2022/03/25 13:38:38;;;;;;;21.98;15.73;;;;;;;;;;5061243;28;20044;-79
2022/03/25 13:41:13;;;;;;;21.27;16.98;;;;;;;;;;5048461;28;20044;-79
2022/03/25 13:43:42;;;;;;;18.75;16.10;;;;;;;;;;5047464;28;20616;-78
2022/03/25 13:46:11;;;;;;;18.30;15.45;;;;;;;;;;5064098;28;20120;-79
2022/03/25 13:48:42;;;;;;;16.80;14.65;;;;;;;;;;5065346;28;20458;-78
2022/03/25 13:51:17;;;;;;;21.77;16.25;;;;;;;;;;5034249;28;20128;-78
2022/03/25 13:53:45;;;;;;;18.17;14.50;;;;;;;;;;5049926;28;20049;-79
2022/03/25 13:56:13;;;;;;;16.67;14.77;;;;;;;;;;5064871;28;20040;-79
2022/03/25 13:58:49;;;;;;;21.08;15.38;;;;;;;;;;5068287;28;20659;-79
2022/03/25 14:01:40;;;;;;;18.77;14.07;;;;;;;;;;5048362;28;20049;-79
2022/03/25 14:04:12;;;;;;;16.92;15.13;;;;;;;;;;5054905;28;20104;-78
2022/03/25 14:06:41;;;;;;;17.42;14.85;;;;;;;;;;5046577;28;20072;-79
2022/03/25 14:09:28;;;;;;;17.13;13.85;;;;;;;;;;5058463;28;20028;-78
2022/03/25 14:11:56;;;;;;;18.60;14.85;;;;;;;;;;5064540;28;20411;-79
2022/03/25 14:14:27;;;;;;;17.25;14.43;;;;;;;;;;5049510;28;20048;-78
2022/03/25 14:16:56;;;;;;;16.73;14.13;;;;;;;;;;5057417;28;20033;-77
2022/03/25 14:19:24;;;;;;;17.52;14.50;;;;;;;;;;5068678;28;20067;-77
2022/03/25 14:21:51;;;;;;;16.77;14.10;;;;;;;;;;5048884;28;20045;-77
2022/03/25 14:24:34;;;;;;;17.38;14.68;;;;;;;;;;5068500;28;20052;-78
2022/03/25 14:27:02;;;;;;;;;;;;;;;;;;5052391;28;20060;-80
2022/03/25 14:29:30;;;;;;;16.35;14.38;;;;;;;;;;5035819;28;19975;-79
2022/03/25 14:31:57;;;;;;;16.40;14.05;;;;;;;;;;5071331;28;20039;-77
2022/03/25 14:34:25;;;;;;;18.13;14.30;;;;;;;;;;5037088;28;20079;-78
2022/03/25 14:36:52;;;;;;;19.13;14.93;;;;;;;;;;5051245;28;20044;-78
2022/03/25 14:39:19;;;;;;;17.85;14.95;;;;;;;;;;5047159;28;20099;-78
2022/03/25 14:41:47;;;;;;;19.38;14.73;;;;;;;;;;5066721;28;20051;-79